Time;durP1;ratioP1;P1;durP2;ratioP2;P2;SDS_P1;SDS_P2;PMS_P1;PMS_P2;Temp;Humidity;BMP_temperature;BMP_pressure;BME280_temperature;BME280_humidity;BME280_pressure;Samples;Min_cycle;Max_cycle;Signal;HPM_P1;HPM_P2
2022/12/11 04:25:29;;;;;;;28.32;20.12;;;;;;;;;;1785242;80;20963;-74
2022/12/11 04:27:56;;;;;;;33.67;21.68;;;;;;;;;;1790457;80;20967;-74
2022/12/11 04:30:24;;;;;;;39.05;21.48;;;;;;;;;;1772483;80;20859;-74
2022/12/11 04:32:51;;;;;;;37.93;23.35;;;;;;;;;;1765320;80;21919;-73
2022/12/11 04:35:18;;;;;;;36.63;23.15;;;;;;;;;;1764808;80;21031;-73
2022/12/11 04:37:44;;;;;;;34.98;20.82;;;;;;;;;;1772562;80;20856;-74
2022/12/11 04:40:13;;;;;;;38.42;25.32;;;;;;;;;;1769420;80;21035;-74
2022/12/11 04:42:40;;;;;;;31.87;21.02;;;;;;;;;;1784658;80;20927;-74
2022/12/11 04:45:08;;;;;;;55.50;21.45;;;;;;;;;;1768377;80;21842;-73
2022/12/11 04:47:35;;;;;;;27.90;19.73;;;;;;;;;;1781432;80;21423;-74
2022/12/11 04:50:03;;;;;;;36.73;18.67;;;;;;;;;;1783051;80;20920;-74
2022/12/11 04:52:30;;;;;;;32.70;20.65;;;;;;;;;;1775845;80;20884;-74
2022/12/11 04:54:56;;;;;;;30.43;17.67;;;;;;;;;;1776450;80;20978;-74
2022/12/11 04:57:23;;;;;;;43.73;21.90;;;;;;;;;;1760328;80;21082;-73
2022/12/11 04:59:49;;;;;;;44.70;26.17;;;;;;;;;;1766143;80;20963;-74
2022/12/11 05:02:16;;;;;;;44.13;26.23;;;;;;;;;;1784506;80;20872;-74
2022/12/11 05:04:42;;;;;;;43.40;26.05;;;;;;;;;;1790333;80;20929;-74
2022/12/11 05:07:10;;;;;;;34.15;22.48;;;;;;;;;;1774178;80;20963;-74
2022/12/11 05:09:37;;;;;;;30.37;19.67;;;;;;;;;;1769441;80;21441;-74
2022/12/11 05:12:03;;;;;;;35.35;21.55;;;;;;;;;;1790046;80;20872;-75
2022/12/11 05:14:31;;;;;;;33.98;19.23;;;;;;;;;;1785991;80;20980;-74
2022/12/11 05:16:58;;;;;;;33.67;21.75;;;;;;;;;;1805214;78;20951;-74
2022/12/11 05:19:25;;;;;;;29.85;18.95;;;;;;;;;;1803880;78;21057;-74
2022/12/11 05:21:51;;;;;;;31.50;21.55;;;;;;;;;;1802314;78;21151;-74
2022/12/11 05:24:18;;;;;;;34.27;23.22;;;;;;;;;;1740287;82;20951;-74
2022/12/11 05:26:44;;;;;;;34.53;24.37;;;;;;;;;;1738923;81;20849;-75
2022/12/11 05:29:11;;;;;;;42.35;27.95;;;;;;;;;;1751704;80;20885;-75
2022/12/11 05:31:37;;;;;;;38.80;21.95;;;;;;;;;;1747719;80;21473;-75
2022/12/11 05:34:05;;;;;;;28.55;18.27;;;;;;;;;;1805361;79;22135;-77
2022/12/11 05:36:33;;;;;;;51.75;28.50;;;;;;;;;;1742549;82;20982;-75
2022/12/11 05:38:59;;;;;;;26.62;19.80;;;;;;;;;;1803009;78;21450;-73
2022/12/11 05:41:28;;;;;;;32.98;22.45;;;;;;;;;;1804929;78;20947;-75
2022/12/11 05:43:54;;;;;;;41.35;22.82;;;;;;;;;;1805133;78;20916;-75
2022/12/11 05:46:23;;;;;;;29.70;21.27;;;;;;;;;;1799967;78;21153;-75
2022/12/11 05:48:52;;;;;;;35.45;21.52;;;;;;;;;;1799816;78;20908;-72
2022/12/11 05:51:19;;;;;;;46.77;24.95;;;;;;;;;;1803451;78;20935;-74
2022/12/11 05:53:49;;;;;;;37.10;22.95;;;;;;;;;;1802392;78;21005;-75
2022/12/11 05:56:17;;;;;;;40.98;26.48;;;;;;;;;;1801804;78;20911;-74
2022/12/11 05:58:44;;;;;;;44.65;25.92;;;;;;;;;;1804985;79;25621;-74
2022/12/11 06:01:17;;;;;;;41.50;24.80;;;;;;;;;;1801950;78;20837;-74
2022/12/11 06:03:43;;;;;;;47.20;28.35;;;;;;;;;;1799344;78;21396;-74
2022/12/11 06:06:10;;;;;;;62.27;32.33;;;;;;;;;;1799385;78;20916;-74
2022/12/11 06:08:37;;;;;;;39.78;27.90;;;;;;;;;;1803060;78;21425;-74
2022/12/11 06:11:04;;;;;;;41.05;26.93;;;;;;;;;;1803937;79;21137;-74
2022/12/11 06:13:31;;;;;;;31.87;18.83;;;;;;;;;;1798996;78;21485;-74
2022/12/11 06:16:02;;;;;;;27.40;18.12;;;;;;;;;;1742302;81;20942;-75
2022/12/11 06:18:28;;;;;;;26.17;18.50;;;;;;;;;;1793013;80;20892;-74
2022/12/11 06:20:55;;;;;;;31.20;21.12;;;;;;;;;;1793060;80;21407;-74
2022/12/11 06:23:22;;;;;;;38.15;22.48;;;;;;;;;;1780584;78;21151;-74
2022/12/11 06:25:48;;;;;;;38.90;23.50;;;;;;;;;;1766248;78;20962;-74
2022/12/11 06:28:14;;;;;;;32.38;20.95;;;;;;;;;;1775594;78;20967;-75
2022/12/11 06:30:41;;;;;;;32.93;19.82;;;;;;;;;;1771073;78;21489;-74
2022/12/11 06:33:08;;;;;;;37.38;19.55;;;;;;;;;;1787511;78;21011;-74
2022/12/11 06:35:34;;;;;;;30.70;20.88;;;;;;;;;;1772024;81;21211;-74
2022/12/11 06:38:01;;;;;;;37.03;25.45;;;;;;;;;;1732444;81;20897;-74
2022/12/11 06:40:28;;;;;;;34.18;21.35;;;;;;;;;;1780310;79;21513;-75
2022/12/11 06:42:54;;;;;;;28.92;18.85;;;;;;;;;;1770383;79;21438;-75
2022/12/11 06:45:20;;;;;;;27.40;18.23;;;;;;;;;;1752418;81;21451;-74
2022/12/11 06:47:47;;;;;;;29.72;20.20;;;;;;;;;;1735385;82;21188;-75
2022/12/11 06:50:14;;;;;;;49.03;27.55;;;;;;;;;;1757083;80;20876;-75
2022/12/11 06:52:40;;;;;;;63.73;33.67;;;;;;;;;;1725059;81;20970;-74
2022/12/11 06:55:08;;;;;;;53.85;28.30;;;;;;;;;;1729153;82;20912;-75
2022/12/11 06:57:34;;;;;;;39.45;23.98;;;;;;;;;;1733938;81;20897;-76
2022/12/11 07:00:01;;;;;;;43.83;23.18;;;;;;;;;;1734862;81;21264;-74
2022/12/11 07:02:27;;;;;;;38.10;24.37;;;;;;;;;;1733299;81;20984;-75
2022/12/11 07:04:54;;;;;;;28.12;18.80;;;;;;;;;;1741795;80;20828;-75
2022/12/11 07:07:23;;;;;;;34.80;20.75;;;;;;;;;;1736970;81;20931;-77
2022/12/11 07:09:49;;;;;;;34.50;22.67;;;;;;;;;;1726087;81;25706;-75
2022/12/11 07:12:15;;;;;;;41.25;27.67;;;;;;;;;;1730932;81;21198;-73
2022/12/11 07:14:42;;;;;;;22.25;17.73;;;;;;;;;;1732715;81;20945;-73
2022/12/11 07:17:08;;;;;;;26.10;15.70;;;;;;;;;;1805119;78;21001;-73
2022/12/11 07:19:35;;;;;;;35.30;18.60;;;;;;;;;;1802540;79;20907;-73
2022/12/11 07:22:01;;;;;;;24.07;17.77;;;;;;;;;;1802636;78;20897;-73
2022/12/11 07:24:28;;;;;;;59.93;19.77;;;;;;;;;;1805075;78;21165;-74
2022/12/11 07:26:54;;;;;;;44.67;23.65;;;;;;;;;;1803749;78;21553;-74
2022/12/11 07:29:21;;;;;;;31.05;21.48;;;;;;;;;;1742914;81;20929;-74
2022/12/11 07:31:48;;;;;;;44.73;25.02;;;;;;;;;;1802950;78;21505;-73
2022/12/11 07:34:15;;;;;;;43.73;27.85;;;;;;;;;;1740732;81;20895;-73
2022/12/11 07:36:42;;;;;;;48.20;31.07;;;;;;;;;;1740976;81;21240;-73
2022/12/11 07:39:11;;;;;;;45.48;27.32;;;;;;;;;;1804725;78;20988;-73
2022/12/11 07:41:38;;;;;;;34.92;20.90;;;;;;;;;;1799919;78;20884;-72
2022/12/11 07:44:06;;;;;;;29.48;21.33;;;;;;;;;;1804066;79;20852;-73
2022/12/11 07:46:33;;;;;;;34.27;21.90;;;;;;;;;;1740884;82;20956;-72
2022/12/11 07:49:02;;;;;;;26.40;19.20;;;;;;;;;;1739520;81;21702;-73
2022/12/11 07:51:30;;;;;;;33.73;19.60;;;;;;;;;;1806028;79;20919;-73
2022/12/11 07:53:58;;;;;;;35.05;22.82;;;;;;;;;;1804740;78;20841;-74
2022/12/11 07:56:25;;;;;;;54.03;25.43;;;;;;;;;;1802171;78;20903;-73
2022/12/11 07:58:53;;;;;;;46.68;28.02;;;;;;;;;;1801682;78;21549;-74
2022/12/11 08:01:24;;;;;;;43.20;26.52;;;;;;;;;;1803973;78;21155;-73
2022/12/11 08:03:51;;;;;;;40.80;27.50;;;;;;;;;;1740615;82;20904;-74
2022/12/11 08:06:17;;;;;;;33.98;23.20;;;;;;;;;;1739149;82;20940;-74
2022/12/11 08:08:44;;;;;;;43.08;26.80;;;;;;;;;;1746188;80;20975;-74
2022/12/11 08:11:12;;;;;;;36.00;21.68;;;;;;;;;;1802017;78;20931;-73
2022/12/11 08:13:39;;;;;;;33.65;23.98;;;;;;;;;;1796938;78;21133;-73
2022/12/11 08:16:07;;;;;;;29.42;21.05;;;;;;;;;;1731898;81;20969;-73
2022/12/11 08:18:34;;;;;;;32.58;22.02;;;;;;;;;;1733786;81;20975;-73
2022/12/11 08:21:07;;;;;;;30.82;20.00;;;;;;;;;;1727091;81;21126;-73
2022/12/11 08:23:34;;;;;;;31.15;19.30;;;;;;;;;;1737675;82;20943;-73
2022/12/11 08:26:02;;;;;;;35.70;21.42;;;;;;;;;;1776053;78;21217;-73
2022/12/11 08:28:29;;;;;;;31.93;21.50;;;;;;;;;;1783760;78;21481;-72
2022/12/11 08:30:56;;;;;;;25.65;18.65;;;;;;;;;;1795737;78;20896;-73
2022/12/11 08:33:23;;;;;;;30.68;22.37;;;;;;;;;;1801649;78;20884;-73
2022/12/11 08:35:49;;;;;;;47.27;28.95;;;;;;;;;;1790219;80;20975;-73
2022/12/11 08:38:16;;;;;;;71.02;37.42;;;;;;;;;;1765704;80;21235;-73
2022/12/11 08:40:42;;;;;;;43.42;28.98;;;;;;;;;;1763408;81;20840;-74
2022/12/11 08:43:09;;;;;;;36.98;24.65;;;;;;;;;;1740916;82;20972;-74
2022/12/11 08:45:36;;;;;;;39.98;25.92;;;;;;;;;;1793052;79;20884;-73
2022/12/11 08:48:03;;;;;;;35.40;22.40;;;;;;;;;;1742954;78;20994;-73
2022/12/11 08:50:30;;;;;;;38.63;25.15;;;;;;;;;;1771763;78;21152;-74
2022/12/11 08:52:57;;;;;;;31.93;22.70;;;;;;;;;;1770088;79;20880;-73
2022/12/11 08:55:23;;;;;;;29.57;17.65;;;;;;;;;;1739307;82;20934;-73
2022/12/11 08:57:50;;;;;;;40.85;25.57;;;;;;;;;;1778381;78;20915;-74
2022/12/11 09:00:17;;;;;;;50.75;25.32;;;;;;;;;;1773385;78;21394;-73
2022/12/11 09:02:44;;;;;;;76.77;42.03;;;;;;;;;;1787007;78;21208;-74
2022/12/11 09:05:10;;;;;;;33.25;19.92;;;;;;;;;;1788039;79;21518;-73
2022/12/11 09:07:37;;;;;;;30.05;20.62;;;;;;;;;;1785110;78;20864;-74
2022/12/11 09:10:05;;;;;;;29.60;18.48;;;;;;;;;;1772397;78;20959;-74
2022/12/11 09:12:33;;;;;;;28.55;21.60;;;;;;;;;;1729692;81;21045;-74
2022/12/11 09:15:00;;;;;;;38.38;25.23;;;;;;;;;;1707389;82;21189;-74
2022/12/11 09:17:26;;;;;;;34.58;23.95;;;;;;;;;;1741931;81;20861;-74
2022/12/11 09:19:53;;;;;;;54.27;27.85;;;;;;;;;;1759982;80;20908;-74
2022/12/11 09:22:19;;;;;;;43.68;23.60;;;;;;;;;;1751600;80;21470;-74
2022/12/11 09:24:45;;;;;;;33.67;19.00;;;;;;;;;;1738951;80;20873;-74
2022/12/11 09:27:12;;;;;;;30.95;20.43;;;;;;;;;;1736733;82;21086;-74
2022/12/11 09:29:39;;;;;;;82.37;47.40;;;;;;;;;;1701840;82;20956;-74
2022/12/11 09:32:05;;;;;;;70.30;35.00;;;;;;;;;;1740873;82;20858;-73
2022/12/11 09:34:32;;;;;;;64.05;39.45;;;;;;;;;;1674488;83;21000;-73
2022/12/11 09:36:58;;;;;;;42.53;26.07;;;;;;;;;;1706380;82;21544;-73
2022/12/11 09:39:25;;;;;;;93.22;58.42;;;;;;;;;;1729317;81;21168;-75
2022/12/11 09:42:01;;;;;;;63.30;37.63;;;;;;;;;;1705681;82;21541;-75
2022/12/11 09:44:32;;;;;;;62.40;40.48;;;;;;;;;;1742373;82;21344;-76
2022/12/11 09:46:59;;;;;;;52.05;31.70;;;;;;;;;;1707874;81;21046;-75
2022/12/11 09:49:29;;;;;;;91.65;50.30;;;;;;;;;;1698502;82;20945;-75
2022/12/11 09:51:59;;;;;;;95.72;59.10;;;;;;;;;;1737719;81;21151;-74
2022/12/11 09:54:25;;;;;;;137.07;61.25;;;;;;;;;;1707502;83;20959;-75
2022/12/11 09:57:11;;;;;;;107.32;54.20;;;;;;;;;;1714959;83;21020;-75
2022/12/11 09:59:56;;;;;;;105.17;62.75;;;;;;;;;;1731744;81;21047;-76
2022/12/11 10:02:47;;;;;;;166.75;87.55;;;;;;;;;;1705623;82;21589;-76
2022/12/11 10:05:26;;;;;;;104.17;65.70;;;;;;;;;;1672885;85;21269;-74
2022/12/11 10:08:15;;;;;;;93.50;53.85;;;;;;;;;;1656545;86;20994;-74
2022/12/11 10:10:42;;;;;;;;;;;;;;;;;;1670695;85;20963;-74
2022/12/11 10:13:39;;;;;;;45.48;27.37;;;;;;;;;;1663530;85;20148;-73
2022/12/11 10:16:37;;;;;;;34.45;20.97;;;;;;;;;;1667337;85;20963;-75
2022/12/11 10:19:04;;;;;;;15.88;12.73;;;;;;;;;;1665948;85;21181;-74
2022/12/11 10:21:38;;;;;;;18.07;13.98;;;;;;;;;;1666221;85;21587;-74
2022/12/11 10:24:07;;;;;;;14.95;11.78;;;;;;;;;;1668436;85;20911;-74
2022/12/11 10:26:36;;;;;;;13.93;11.03;;;;;;;;;;1663033;85;21122;-76
2022/12/11 10:29:05;;;;;;;18.55;13.98;;;;;;;;;;1667281;85;21075;-72
2022/12/11 10:31:41;;;;;;;15.05;12.15;;;;;;;;;;1665164;85;21176;-72
2022/12/11 10:34:13;;;;;;;15.85;9.43;;;;;;;;;;1663947;85;21481;-72
2022/12/11 10:36:41;;;;;;;20.17;14.93;;;;;;;;;;1659879;85;20955;-73
2022/12/11 10:39:14;;;;;;;24.67;17.35;;;;;;;;;;1668183;85;20998;-74
2022/12/11 10:41:46;;;;;;;16.17;11.03;;;;;;;;;;1668766;85;20955;-76
2022/12/11 10:44:25;;;;;;;17.27;13.65;;;;;;;;;;1671502;85;21352;-74
2022/12/11 10:47:13;;;;;;;16.32;13.62;;;;;;;;;;1670879;86;20955;-72
2022/12/11 10:49:44;;;;;;;;;;;;;;;;;;1686892;84;21482;-74
2022/12/11 10:52:26;;;;;;;16.67;12.68;;;;;;;;;;1655781;86;20157;-73
2022/12/11 10:55:01;;;;;;;19.37;14.03;;;;;;;;;;1654863;86;20952;-72
2022/12/11 10:57:33;;;;;;;16.45;11.95;;;;;;;;;;1643478;86;21181;-74
2022/12/11 11:00:03;;;;;;;18.77;13.15;;;;;;;;;;1659154;86;21512;-75
2022/12/11 11:02:39;;;;;;;16.05;12.75;;;;;;;;;;1649831;85;20964;-73
2022/12/11 11:05:14;;;;;;;14.47;10.88;;;;;;;;;;1651953;86;20906;-73
2022/12/11 11:07:42;;;;;;;17.00;13.68;;;;;;;;;;1656319;86;21046;-73
2022/12/11 11:10:12;;;;;;;14.10;12.47;;;;;;;;;;1656231;86;21518;-75
2022/12/11 11:12:46;;;;;;;13.48;11.18;;;;;;;;;;1658486;86;21509;-74
2022/12/11 11:15:18;;;;;;;13.90;11.75;;;;;;;;;;1671140;85;20951;-75
2022/12/11 11:17:47;;;;;;;12.85;10.88;;;;;;;;;;1707817;83;20935;-74
2022/12/11 11:20:16;;;;;;;13.32;11.75;;;;;;;;;;1682140;84;26826;-76
2022/12/11 11:22:48;;;;;;;12.13;9.53;;;;;;;;;;1685841;85;21044;-76
2022/12/11 11:25:20;;;;;;;14.98;11.68;;;;;;;;;;1701963;83;20928;-72
2022/12/11 11:27:54;;;;;;;20.27;15.08;;;;;;;;;;1703819;83;20942;-74
2022/12/11 11:30:27;;;;;;;11.40;10.20;;;;;;;;;;1672829;85;20982;-74
2022/12/11 11:33:01;;;;;;;31.80;26.97;;;;;;;;;;1673210;85;21412;-74
2022/12/11 11:35:27;;;;;;;22.45;17.12;;;;;;;;;;1664948;85;21179;-73
2022/12/11 11:38:20;;;;;;;14.13;12.47;;;;;;;;;;1672911;83;20935;-75
2022/12/11 11:41:13;;;;;;;14.55;9.00;;;;;;;;;;1679291;85;20978;-73
2022/12/11 11:43:49;;;;;;;13.28;11.57;;;;;;;;;;1695594;84;21008;-73
2022/12/11 11:46:35;;;;;;;16.97;12.33;;;;;;;;;;1695411;84;20904;-75
2022/12/11 11:49:33;;;;;;;16.00;12.82;;;;;;;;;;1696191;84;21179;-72
2022/12/11 11:52:15;;;;;;;18.67;12.20;;;;;;;;;;1695128;84;21007;-74
2022/12/11 11:54:49;;;;;;;23.07;13.78;;;;;;;;;;1694193;84;20976;-73
2022/12/11 11:57:36;;;;;;;37.55;27.98;;;;;;;;;;1695935;84;20915;-72
2022/12/11 12:00:09;;;;;;;43.05;34.40;;;;;;;;;;1695025;84;21521;-74
2022/12/11 12:02:35;;;;;;;20.43;14.93;;;;;;;;;;1693710;84;21136;-74
2022/12/11 12:05:02;;;;;;;14.23;11.97;;;;;;;;;;1695909;84;21498;-73
2022/12/11 12:07:52;;;;;;;16.62;13.93;;;;;;;;;;1694174;84;20948;-73
2022/12/11 12:10:23;;;;;;;;;;;;;;;;;;1697178;84;21019;-75
2022/12/11 12:12:59;;;;;;;25.15;17.57;;;;;;;;;;1694954;84;20495;-72
2022/12/11 12:15:36;;;;;;;16.02;12.53;;;;;;;;;;1673441;84;21223;-72
2022/12/11 12:18:15;;;;;;;14.60;11.78;;;;;;;;;;1714976;83;20967;-71
2022/12/11 12:20:54;;;;;;;16.30;12.05;;;;;;;;;;1706390;83;20948;-73
2022/12/11 12:23:41;;;;;;;16.93;14.03;;;;;;;;;;1669996;85;21462;-74
2022/12/11 12:26:18;;;;;;;17.30;14.68;;;;;;;;;;1711735;83;20915;-74
2022/12/11 12:29:08;;;;;;;12.90;10.25;;;;;;;;;;1683076;84;21620;-74
2022/12/11 12:31:53;;;;;;;15.78;12.90;;;;;;;;;;1697337;83;20980;-73
2022/12/11 12:34:40;;;;;;;13.95;10.93;;;;;;;;;;1715615;83;20940;-73
2022/12/11 12:37:13;;;;;;;17.87;15.40;;;;;;;;;;1687603;85;21437;-75
2022/12/11 12:40:06;;;;;;;14.38;11.63;;;;;;;;;;1713812;83;20983;-76
2022/12/11 12:42:55;;;;;;;16.93;13.45;;;;;;;;;;1699486;84;21267;-73
2022/12/11 12:45:26;;;;;;;;;;;;;;;;;;1686889;84;20944;-74
2022/12/11 12:47:52;;;;;;;14.83;11.25;;;;;;;;;;1688266;85;20124;-73
2022/12/11 12:50:24;;;;;;;16.85;11.83;;;;;;;;;;1684594;84;20979;-74
2022/12/11 12:52:51;;;;;;;15.98;14.20;;;;;;;;;;1683256;84;20995;-74
2022/12/11 12:55:26;;;;;;;12.73;11.35;;;;;;;;;;1684648;84;21165;-74
2022/12/11 12:57:56;;;;;;;21.85;16.85;;;;;;;;;;1691481;84;20904;-75
2022/12/11 13:00:37;;;;;;;17.25;10.93;;;;;;;;;;1688116;84;20947;-75
2022/12/11 13:03:22;;;;;;;15.80;12.90;;;;;;;;;;1689623;84;21060;-71
2022/12/11 13:06:03;;;;;;;16.27;11.80;;;;;;;;;;1679098;85;21427;-73
2022/12/11 13:08:39;;;;;;;17.17;14.47;;;;;;;;;;1687954;84;21272;-73
2022/12/11 13:11:10;;;;;;;14.80;12.88;;;;;;;;;;1685700;84;20987;-71
2022/12/11 13:13:53;;;;;;;16.20;12.73;;;;;;;;;;1689333;84;21034;-73
2022/12/11 13:16:20;;;;;;;14.20;10.68;;;;;;;;;;1689377;84;21034;-71
2022/12/11 13:18:47;;;;;;;15.65;13.25;;;;;;;;;;1671630;85;20992;-72
2022/12/11 13:21:27;;;;;;;24.77;18.45;;;;;;;;;;1671012;86;21978;-74
2022/12/11 13:23:56;;;;;;;24.98;17.92;;;;;;;;;;1670429;85;20928;-73
2022/12/11 13:26:30;;;;;;;54.75;48.48;;;;;;;;;;1667680;85;20935;-72
2022/12/11 13:28:57;;;;;;;16.40;11.80;;;;;;;;;;1670561;85;21514;-72
2022/12/11 13:31:33;;;;;;;30.00;22.75;;;;;;;;;;1670399;85;20864;-73
2022/12/11 13:34:19;;;;;;;20.50;15.23;;;;;;;;;;1670261;85;21194;-74
2022/12/11 13:36:50;;;;;;;10.58;8.50;;;;;;;;;;1671144;85;20884;-73
2022/12/11 13:39:26;;;;;;;28.80;20.65;;;;;;;;;;1699825;84;21371;-75
2022/12/11 13:42:06;;;;;;;17.30;11.83;;;;;;;;;;1700710;84;20855;-75
2022/12/11 13:44:40;;;;;;;13.45;10.93;;;;;;;;;;1699203;84;20915;-73
2022/12/11 13:47:13;;;;;;;20.05;16.32;;;;;;;;;;1700990;84;21255;-74
2022/12/11 13:49:41;;;;;;;24.72;20.62;;;;;;;;;;1701103;84;21006;-75
2022/12/11 13:52:17;;;;;;;31.65;26.85;;;;;;;;;;1701949;84;20839;-76
2022/12/11 13:54:49;;;;;;;29.70;20.45;;;;;;;;;;1701153;84;20956;-74
2022/12/11 13:57:24;;;;;;;31.55;21.80;;;;;;;;;;1700437;84;20927;-75
2022/12/11 13:59:52;;;;;;;30.25;22.25;;;;;;;;;;1700338;84;21203;-74
2022/12/11 14:02:33;;;;;;;36.75;31.27;;;;;;;;;;1702281;84;20994;-76
2022/12/11 14:05:02;;;;;;;47.65;39.13;;;;;;;;;;1701591;84;21075;-74
2022/12/11 14:07:34;;;;;;;33.85;25.95;;;;;;;;;;1702010;84;20911;-76
2022/12/11 14:10:04;;;;;;;23.73;17.10;;;;;;;;;;1698058;84;21010;-75
2022/12/11 14:12:32;;;;;;;22.27;19.15;;;;;;;;;;1701349;84;21157;-76
2022/12/11 14:15:00;;;;;;;42.88;33.58;;;;;;;;;;1711614;83;21694;-75
2022/12/11 14:17:30;;;;;;;26.77;21.02;;;;;;;;;;1674266;85;21453;-76
2022/12/11 14:19:58;;;;;;;16.17;11.90;;;;;;;;;;1688428;84;20904;-76
2022/12/11 14:22:26;;;;;;;36.10;26.82;;;;;;;;;;1699454;84;20955;-75
2022/12/11 14:24:54;;;;;;;28.62;20.25;;;;;;;;;;1701422;84;21236;-75
2022/12/11 14:27:21;;;;;;;21.97;16.30;;;;;;;;;;1701695;84;20975;-72
2022/12/11 14:29:47;;;;;;;27.77;16.48;;;;;;;;;;1700204;84;20943;-75
2022/12/11 14:32:29;;;;;;;28.90;18.20;;;;;;;;;;1701097;84;20927;-74
2022/12/11 14:34:56;;;;;;;15.10;11.68;;;;;;;;;;1700685;84;20880;-74
2022/12/11 14:37:22;;;;;;;17.42;13.22;;;;;;;;;;1699519;84;21261;-72
2022/12/11 14:39:55;;;;;;;19.10;13.45;;;;;;;;;;1702281;84;20920;-74
2022/12/11 14:42:24;;;;;;;13.50;11.22;;;;;;;;;;1701069;84;20915;-75
2022/12/11 14:45:09;;;;;;;19.65;14.20;;;;;;;;;;1699483;84;21701;-75
2022/12/11 14:47:38;;;;;;;17.15;13.43;;;;;;;;;;1699538;84;20919;-76
2022/12/11 14:50:19;;;;;;;18.77;15.38;;;;;;;;;;1699882;84;21169;-73
2022/12/11 14:52:48;;;;;;;20.82;15.13;;;;;;;;;;1699679;84;20879;-73
2022/12/11 14:55:21;;;;;;;13.70;11.00;;;;;;;;;;1700427;84;20999;-75
2022/12/11 14:57:49;;;;;;;14.20;9.98;;;;;;;;;;1700521;84;20920;-76
2022/12/11 15:00:25;;;;;;;15.35;13.20;;;;;;;;;;1702109;84;20907;-75
2022/12/11 15:03:05;;;;;;;93.05;39.92;;;;;;;;;;1714169;83;21108;-73
2022/12/11 15:05:33;;;;;;;21.25;13.18;;;;;;;;;;1715313;83;21502;-75
2022/12/11 15:08:02;;;;;;;26.70;21.73;;;;;;;;;;1717164;83;21015;-76
2022/12/11 15:10:41;;;;;;;25.77;21.80;;;;;;;;;;1672662;85;21034;-72
2022/12/11 15:13:07;;;;;;;37.93;30.12;;;;;;;;;;1688749;85;22455;-77
2022/12/11 15:15:44;;;;;;;29.15;23.20;;;;;;;;;;1681966;85;21153;-75
2022/12/11 15:18:26;;;;;;;16.73;11.80;;;;;;;;;;1687041;85;20938;-77
2022/12/11 15:20:54;;;;;;;22.62;15.38;;;;;;;;;;1690051;85;20960;-74
2022/12/11 15:23:22;;;;;;;21.90;14.87;;;;;;;;;;1699201;84;20998;-76
2022/12/11 15:25:54;;;;;;;45.30;31.30;;;;;;;;;;1700271;84;20907;-76
2022/12/11 15:28:32;;;;;;;44.75;34.73;;;;;;;;;;1699784;84;21139;-76
2022/12/11 15:31:01;;;;;;;95.07;61.70;;;;;;;;;;1700129;84;21690;-73
2022/12/11 15:33:27;;;;;;;130.52;86.82;;;;;;;;;;1699745;84;20931;-76
2022/12/11 15:35:56;;;;;;;37.85;26.75;;;;;;;;;;1701478;84;20864;-74
2022/12/11 15:38:31;;;;;;;33.92;22.32;;;;;;;;;;1702307;84;21116;-75
2022/12/11 15:40:58;;;;;;;45.95;33.33;;;;;;;;;;1700365;84;21205;-76
2022/12/11 15:43:26;;;;;;;50.70;35.00;;;;;;;;;;1689676;84;20860;-76
2022/12/11 15:45:52;;;;;;;37.67;27.48;;;;;;;;;;1697464;83;21610;-73
2022/12/11 15:48:19;;;;;;;31.42;21.48;;;;;;;;;;1699356;84;20896;-74
2022/12/11 15:50:46;;;;;;;35.20;25.12;;;;;;;;;;1699653;84;21528;-74
2022/12/11 15:53:12;;;;;;;43.90;30.82;;;;;;;;;;1700649;84;21135;-74
2022/12/11 15:55:39;;;;;;;25.90;17.27;;;;;;;;;;1700175;84;20903;-76
2022/12/11 15:58:08;;;;;;;25.65;18.37;;;;;;;;;;1699495;84;21237;-77
2022/12/11 16:00:35;;;;;;;30.20;21.73;;;;;;;;;;1699785;84;20931;-77
2022/12/11 16:03:01;;;;;;;31.57;25.15;;;;;;;;;;1699782;84;20983;-73
2022/12/11 16:05:28;;;;;;;34.73;25.57;;;;;;;;;;1701615;84;21524;-76
2022/12/11 16:07:59;;;;;;;26.62;20.62;;;;;;;;;;1701583;84;20848;-75
2022/12/11 16:10:25;;;;;;;36.45;28.92;;;;;;;;;;1699472;84;21010;-75
2022/12/11 16:12:55;;;;;;;28.65;18.62;;;;;;;;;;1699340;84;21004;-74
2022/12/11 16:15:20;;;;;;;29.15;21.10;;;;;;;;;;1715660;83;26465;-74
2022/12/11 16:17:47;;;;;;;29.87;20.00;;;;;;;;;;1706446;83;21134;-74
2022/12/11 16:20:15;;;;;;;33.28;21.95;;;;;;;;;;1701358;84;20887;-74
2022/12/11 16:22:42;;;;;;;31.80;22.30;;;;;;;;;;1705982;83;20989;-73
2022/12/11 16:25:08;;;;;;;30.57;22.07;;;;;;;;;;1701149;84;20906;-75
2022/12/11 16:27:35;;;;;;;26.70;15.78;;;;;;;;;;1706530;83;21397;-75
2022/12/11 16:30:01;;;;;;;29.67;16.77;;;;;;;;;;1714520;83;21247;-75
2022/12/11 16:32:27;;;;;;;33.08;21.35;;;;;;;;;;1709028;83;20935;-75
2022/12/11 16:34:56;;;;;;;28.25;19.40;;;;;;;;;;1707882;83;20898;-76
2022/12/11 16:37:22;;;;;;;29.05;21.62;;;;;;;;;;1690479;83;21021;-75
2022/12/11 16:39:49;;;;;;;29.05;20.40;;;;;;;;;;1705508;83;21456;-73
2022/12/11 16:42:15;;;;;;;17.48;10.45;;;;;;;;;;1710845;83;21224;-73
2022/12/11 16:44:42;;;;;;;15.83;12.20;;;;;;;;;;1704742;83;20895;-77
2022/12/11 16:47:08;;;;;;;10.65;9.55;;;;;;;;;;1714235;83;20902;-75
2022/12/11 16:49:34;;;;;;;11.95;10.05;;;;;;;;;;1707545;83;20875;-76
2022/12/11 16:52:03;;;;;;;12.63;11.35;;;;;;;;;;1713379;83;20906;-76
2022/12/11 16:54:29;;;;;;;;;;;;;;;;;;1703740;84;21245;-74
2022/12/11 16:56:56;;;;;;;10.40;8.70;;;;;;;;;;1701204;84;20412;-75
2022/12/11 16:59:22;;;;;;;8.55;7.67;;;;;;;;;;1672735;85;20965;-76
2022/12/11 17:01:49;;;;;;;8.88;8.08;;;;;;;;;;1652011;86;20908;-73
2022/12/11 17:04:16;;;;;;;14.90;11.22;;;;;;;;;;1653474;86;21590;-76
2022/12/11 17:06:43;;;;;;;20.03;13.37;;;;;;;;;;1641154;87;21286;-74
2022/12/11 17:09:10;;;;;;;8.28;7.35;;;;;;;;;;1665981;85;21015;-77
2022/12/11 17:11:37;;;;;;;64.97;34.58;;;;;;;;;;1670965;85;20929;-76
2022/12/11 17:14:03;;;;;;;11.20;8.83;;;;;;;;;;1669493;85;20987;-77
2022/12/11 17:16:32;;;;;;;11.40;7.55;;;;;;;;;;1669458;85;20964;-76
2022/12/11 17:18:59;;;;;;;14.43;10.58;;;;;;;;;;1669765;85;21541;-74
2022/12/11 17:21:25;;;;;;;11.30;8.48;;;;;;;;;;1669594;85;21442;-75
2022/12/11 17:23:52;;;;;;;8.13;6.30;;;;;;;;;;1661291;85;20913;-76
2022/12/11 17:26:19;;;;;;;48.80;22.93;;;;;;;;;;1639463;86;20980;-76
2022/12/11 17:28:46;;;;;;;37.65;19.57;;;;;;;;;;1667481;85;20892;-76
2022/12/11 17:31:15;;;;;;;9.38;6.58;;;;;;;;;;1669684;86;21856;-76
2022/12/11 17:33:42;;;;;;;7.80;6.45;;;;;;;;;;1669114;85;21447;-76
2022/12/11 17:36:12;;;;;;;7.87;5.67;;;;;;;;;;1638631;87;21039;-76
2022/12/11 17:38:38;;;;;;;5.50;5.00;;;;;;;;;;1674814;85;20900;-75
2022/12/11 17:41:06;;;;;;;6.28;5.67;;;;;;;;;;1657373;86;21004;-75
2022/12/11 17:43:32;;;;;;;6.05;5.45;;;;;;;;;;1647098;86;21521;-77
2022/12/11 17:45:58;;;;;;;12.50;9.23;;;;;;;;;;1669193;85;20849;-76
2022/12/11 17:48:25;;;;;;;5.70;5.10;;;;;;;;;;1665336;85;21506;-75
2022/12/11 17:50:51;;;;;;;8.85;6.00;;;;;;;;;;1665657;86;21013;-75
2022/12/11 17:53:18;;;;;;;8.75;7.28;;;;;;;;;;1665535;85;21000;-74
2022/12/11 17:55:44;;;;;;;10.03;6.37;;;;;;;;;;1665610;85;21163;-76
2022/12/11 17:58:15;;;;;;;9.13;7.50;;;;;;;;;;1660344;84;21039;-77
2022/12/11 18:00:43;;;;;;;17.37;10.93;;;;;;;;;;1665192;86;20956;-75
2022/12/11 18:03:10;;;;;;;7.63;6.73;;;;;;;;;;1666007;86;20995;-75
2022/12/11 18:05:43;;;;;;;9.65;7.25;;;;;;;;;;1663882;85;27117;-76
2022/12/11 18:08:12;;;;;;;6.17;5.58;;;;;;;;;;1665751;86;21142;-75
2022/12/11 18:10:40;;;;;;;6.65;5.95;;;;;;;;;;1660939;85;20956;-74
2022/12/11 18:13:07;;;;;;;21.90;13.03;;;;;;;;;;1669167;85;20977;-75
2022/12/11 18:15:33;;;;;;;8.15;7.28;;;;;;;;;;1668981;85;20940;-75
2022/12/11 18:17:59;;;;;;;14.45;12.93;;;;;;;;;;1654407;86;21057;-75
2022/12/11 18:20:25;;;;;;;19.00;12.75;;;;;;;;;;1652044;85;21155;-74
2022/12/11 18:22:54;;;;;;;10.05;9.10;;;;;;;;;;1617122;88;48116;-75
2022/12/11 18:25:20;;;;;;;6.80;6.20;;;;;;;;;;1677221;85;20965;-75
2022/12/11 18:27:47;;;;;;;7.75;7.00;;;;;;;;;;1656796;85;20917;-74
2022/12/11 18:30:13;;;;;;;7.15;6.45;;;;;;;;;;1655488;85;20998;-75
2022/12/11 18:32:41;;;;;;;11.22;9.30;;;;;;;;;;1647361;87;21354;-74
2022/12/11 18:35:09;;;;;;;9.38;8.43;;;;;;;;;;1652384;85;21396;-73
2022/12/11 18:37:37;;;;;;;7.70;6.65;;;;;;;;;;1668282;85;20929;-72
2022/12/11 18:40:05;;;;;;;7.65;6.97;;;;;;;;;;1674169;85;20997;-75
2022/12/11 18:42:32;;;;;;;9.05;8.25;;;;;;;;;;1654014;86;21021;-72
2022/12/11 18:44:58;;;;;;;7.42;6.37;;;;;;;;;;1654480;86;21417;-74
2022/12/11 18:47:25;;;;;;;8.20;7.47;;;;;;;;;;1652320;86;20954;-73
2022/12/11 18:49:52;;;;;;;8.50;7.67;;;;;;;;;;1650004;86;21113;-73
2022/12/11 18:52:19;;;;;;;9.55;8.65;;;;;;;;;;1671896;85;21341;-73
2022/12/11 18:54:46;;;;;;;16.45;13.58;;;;;;;;;;1672698;85;20932;-74
2022/12/11 18:57:13;;;;;;;9.30;8.40;;;;;;;;;;1646446;85;21265;-74
2022/12/11 18:59:39;;;;;;;8.65;7.95;;;;;;;;;;1671299;85;21386;-76
2022/12/11 19:02:06;;;;;;;8.75;7.65;;;;;;;;;;1614788;87;21004;-74